Goodyear, Mississippi
Current Conditions -  °F | °C
As of 7:53 PM on Saturday 20 Dec 2014 (Local Time) from KASD Reporting Station
Overcast Overcast  
Wind Chill: 52°   Ceiling: 1400
Heat Index: 52°   Visibility: 10mi
Dew Point: 46°   Wind: 9mph
Humidity: 80%   Direction: 20°NNE
Pressure: 30.15"   Gusts: NA
Location:  30.5854°N, 89.6932°W
Report Text: KASD 210153Z AUTO 02008KT 10SM OVC014 11/08 A3015 RMK AO2 SLP208 T01110078
Loading
Personal Weather Stations






























Interactive Weather Map New forecast layout! Learn more

10-Day Weather Forecast

Advertisements
Track Severe Weather on mobile